Barbados Meteorological Services
Auto gathered TAF list
Powered by Apparatus software
For Flight AA2725
Contact Number 1-(246)-535-0021/2/3/4/5/6
WEB: http://www.barbadosweather.org

**********************************************

2018/07/17 18:12
TAF TLPL 171700Z 1718/1818 09018KT 9999 SCT025
TEMPO 1806/1818 5000 SHRA FEW018TCU BKN020 PROB30
TEMPO 1812/1818 3000 TSRA FEW015CB


**********************************************
2018/07/17 18:24
TAF TJSJ 171720Z 1718/1818 08015KT P6SM VCSH SCT030 SCT050
FM172300 11005KT P6SM FEW030
FM180900 08005KT 6SM HZ SCT030


**********************************************
2018/07/17 06:03
TAF TFFR 170400Z 1706/1806 11008KT 9999 FEW025 SCT040 PROB30
TEMPO 1707/1714 4500 SHRA BKN018TCU


**********************************************
2018/07/17 18:52
TAF TBPB 171700Z 1718/1818 09022KT 9999 SCT018= TAF TVSA 171700Z 1718/1818 07013KT 9999 SCT018


**********************************************
2018/07/17 18:54
TAF TAF TAPA 171700Z 1718/1818 09015KT 9999 SCT018


**********************************************
2018/07/17 18:47
TAF MYNN 171630Z 1718/1818 15012KT 9999 VCSH FEW018CB SCT020
FM180500 VRB02KT 9999 FEW020


**********************************************
2018/07/17 18:39
TAF MTPP 171700Z 1718/1818 10012G22KT 9999 SCT024 PROB30
TEMPO 1723/1804 30010KT 4800 -TSRA FEW014CB SCT030
BECMG 1806/1810 VRB02KT 8000 NSW FEW016
BECMG 1812/1815 09012KT 9999


**********************************************
2018/07/17 18:02
TAF MDSD 171600Z 1718/1818 13008KT 9999 FEW020CB SCT022 PROB40
TEMPO 1718/1722 7000 -TSRA FEW016CB BKN018 BKN300
BECMG 1720/1722 05006KT


**********************************************
2018/07/17 18:59
TAF
AMD KSFB 171759Z 1718/1818 16005KT P6SM SCT025 SCT250
FM171900 24008KT P6SM VCTS SCT050CB BKN250
TEMPO 1719/1721 VRB15G30KT 3SM TSRA BKN030CB
FM180000 22005KT P6SM FEW050 SCT080 BKN150
FM180400 20003KT P6SM BKN250


**********************************************
2018/07/17 21:57
TAF
AMD KPHL 172057Z 1721/1824 30012KT P6SM -SHRA SCT040 BKN120
FM172300 23005KT P6SM VCSH BKN050
TEMPO 1723/1801 4SM SHRA BKN035
FM180100 25005KT 6SM HZ VCSH BKN050
FM180300 36006KT P6SM SCT050
FM181200 33010KT P6SM SKC


**********************************************
2018/07/17 18:26
TAF KPBI 171721Z 1718/1818 14011KT P6SM VCTS SCT040CB BKN060
FM172300 VRB05KT P6SM VCSH FEW030 SCT080 BKN120
FM180100 22005KT P6SM FEW030 SCT250


**********************************************
2018/07/17 18:24
TAF KOPF 171721Z 1718/1818 15008KT P6SM VCTS SCT035CB BKN060
FM172300 VRB05KT P6SM VCSH FEW030 SCT080 BKN120
FM180100 22002KT P6SM FEW030 SCT250


**********************************************
2018/07/17 20:57
TAF
AMD KMIA 171957Z 1720/1824 19007KT P6SM VCTS FEW035 BKN040CB BKN150
FM172300 19003KT P6SM FEW030 SCT080 BKN120
FM180100 22003KT P6SM FEW030 SCT250
FM181800 19008KT P6SM FEW030 SCT060


**********************************************
2018/07/17 18:52
TAF
AMD KMCO 171749Z 1718/1824 22009KT P6SM SCT025 SCT250
FM171900 23008KT P6SM VCTS SCT050CB BKN250
TEMPO 1719/1721 VRB15G30KT 3SM TSRA BKN030CB
FM180000 22005KT P6SM FEW050 SCT080 BKN150
FM180400 20003KT P6SM BKN250


**********************************************
2018/07/17 21:57
TAF
AMD KJFK 172053Z 1721/1824 VRB05KT 5SM -TSRA SCT015 SCT025 OVC050CB
TEMPO 1721/1722 3SM SHRA BR SCT015 BKN025
FM172200 25009KT P6SM VCSH BKN050
FM180300 32006KT P6SM VCSH SCT050 BKN120
FM180700 34006KT P6SM FEW050 SCT120
FM181200 35010KT P6SM SCT250
FM181800 35012KT P6SM SKC


**********************************************
2018/07/17 21:36
TAF
AMD KJAX 172034Z 1721/1818 22008KT P6SM -SHRA FEW015 SCT090 BKN110
FM172200 21005KT P6SM VCSH FEW030 SCT120 BKN250
FM181300 24008KT P6SM FEW020 BKN100 BKN250 PROB30 1815/1818 25020G30KT 3SM +TSRA SCT010 BKN020CB OVC040


**********************************************
2018/07/17 20:08
TAF
AMD KFLL 172001Z 1720/1824 14015KT P6SM VCTS SCT050CB BKN150
FM172300 VRB05KT P6SM FEW030 SCT080 BKN120
FM180100 22005KT P6SM FEW030 SCT250
FM181800 17010KT P6SM FEW030 SCT050


**********************************************
2018/07/17 21:39
TAF
AMD KEWR 172037Z 1721/1824 27008KT 5SM -TSRA BKN050CB
TEMPO 1721/1722 3SM SHRA SCT015 BKN040
FM172200 26006KT P6SM VCSH SCT040 BKN070
FM180200 32006KT P6SM VCSH SCT070 BKN120
FM180700 34006KT P6SM FEW050 SCT120
FM181200 35010KT P6SM SCT250
FM181800 35012KT P6SM SKC


**********************************************
2018/07/17 20:03
TAF
AMD KCLT 172000Z 1720/1824 24010KT P6SM SCT040 BKN250
TEMPO 1720/1724 30015G25KT 4SM -TSRA OVC025CB
FM180200 33004KT P6SM BKN045
FM180800 36003KT P6SM FEW045 BKN250
FM181400 03007KT P6SM SCT100 BKN250


**********************************************
2018/07/17 20:54
TAF
AMD KATL 171950Z 1720/1824 32007KT P6SM SCT040 BKN250
TEMPO 1721/1801 VRB12G22KT 3SM TSRA BKN020CB
FM180200 31005KT P6SM FEW045 SCT070
FM181400 35006KT P6SM SCT035 SCT250
FM181700 33008KT P6SM SCT045 SCT250


**********************************************